sensor_id;sensor_type;location;lat;lon;timestamp;temperature;humidity
66962;HTU21D;53897;51.126;5.868;2023-04-03T00:02:18;21.83;42.09
66962;HTU21D;53897;51.126;5.868;2023-04-03T00:04:43;21.82;42.10
66962;HTU21D;53897;51.126;5.868;2023-04-03T00:07:09;21.80;42.07
66962;HTU21D;53897;51.126;5.868;2023-04-03T00:09:34;21.79;42.04
66962;HTU21D;53897;51.126;5.868;2023-04-03T00:12:00;21.79;42.02
66962;HTU21D;53897;51.126;5.868;2023-04-03T00:14:26;21.75;42.03
66962;HTU21D;53897;51.126;5.868;2023-04-03T00:16:52;21.74;42.02
66962;HTU21D;53897;51.126;5.868;2023-04-03T00:19:18;21.73;42.00
66962;HTU21D;53897;51.126;5.868;2023-04-03T00:21:44;21.69;42.03
66962;HTU21D;53897;51.126;5.868;2023-04-03T00:24:11;21.69;41.97
66962;HTU21D;53897;51.126;5.868;2023-04-03T00:26:36;21.67;41.94
66962;HTU21D;53897;51.126;5.868;2023-04-03T00:29:02;21.65;41.90
66962;HTU21D;53897;51.126;5.868;2023-04-03T00:31:28;21.64;41.90
66962;HTU21D;53897;51.126;5.868;2023-04-03T00:33:54;21.61;41.90
66962;HTU21D;53897;51.126;5.868;2023-04-03T00:36:19;21.59;41.87
66962;HTU21D;53897;51.126;5.868;2023-04-03T00:38:45;21.58;41.90
66962;HTU21D;53897;51.126;5.868;2023-04-03T00:41:11;21.58;41.87
66962;HTU21D;53897;51.126;5.868;2023-04-03T00:43:37;21.54;41.85
66962;HTU21D;53897;51.126;5.868;2023-04-03T00:46:03;21.53;41.81
66962;HTU21D;53897;51.126;5.868;2023-04-03T00:48:42;21.51;41.84
66962;HTU21D;53897;51.126;5.868;2023-04-03T00:51:13;21.49;41.84
66962;HTU21D;53897;51.126;5.868;2023-04-03T00:53:58;21.48;41.84
66962;HTU21D;53897;51.126;5.868;2023-04-03T00:56:27;21.46;41.80
66962;HTU21D;53897;51.126;5.868;2023-04-03T00:59:08;21.44;41.79
66962;HTU21D;53897;51.126;5.868;2023-04-03T01:01:35;21.43;41.81
66962;HTU21D;53897;51.126;5.868;2023-04-03T01:04:02;21.40;41.68
66962;HTU21D;53897;51.126;5.868;2023-04-03T01:06:34;21.39;41.79
66962;HTU21D;53897;51.126;5.868;2023-04-03T01:09:06;21.37;41.90
66962;HTU21D;53897;51.126;5.868;2023-04-03T01:11:32;21.37;41.95
66962;HTU21D;53897;51.126;5.868;2023-04-03T01:14:00;21.35;42.01
66962;HTU21D;53897;51.126;5.868;2023-04-03T01:16:27;21.33;42.02
66962;HTU21D;53897;51.126;5.868;2023-04-03T01:18:59;21.31;42.07
66962;HTU21D;53897;51.126;5.868;2023-04-03T01:24:32;21.29;41.99
66962;HTU21D;53897;51.126;5.868;2023-04-03T01:27:03;21.25;41.98
66962;HTU21D;53897;51.126;5.868;2023-04-03T01:29:29;21.25;41.98
66962;HTU21D;53897;51.126;5.868;2023-04-03T01:31:57;21.23;41.97
66962;HTU21D;53897;51.126;5.868;2023-04-03T01:34:24;21.22;41.93
66962;HTU21D;53897;51.126;5.868;2023-04-03T01:36:52;21.20;41.88
66962;HTU21D;53897;51.126;5.868;2023-04-03T01:39:19;21.20;41.90
66962;HTU21D;53897;51.126;5.868;2023-04-03T01:41:46;21.19;41.91
66962;HTU21D;53897;51.126;5.868;2023-04-03T01:44:17;21.16;41.87
66962;HTU21D;53897;51.126;5.868;2023-04-03T01:46:44;21.14;41.87
66962;HTU21D;53897;51.126;5.868;2023-04-03T01:49:10;21.14;41.90
66962;HTU21D;53897;51.126;5.868;2023-04-03T01:51:35;21.13;41.88
66962;HTU21D;53897;51.126;5.868;2023-04-03T01:54:02;21.10;41.86
66962;HTU21D;53897;51.126;5.868;2023-04-03T01:56:27;21.09;41.84
66962;HTU21D;53897;51.126;5.868;2023-04-03T01:58:54;21.07;41.75
66962;HTU21D;53897;51.126;5.868;2023-04-03T02:01:19;21.08;41.77
66962;HTU21D;53897;51.126;5.868;2023-04-03T02:03:45;21.06;41.77
66962;HTU21D;53897;51.126;5.868;2023-04-03T02:06:11;21.05;41.78
66962;HTU21D;53897;51.126;5.868;2023-04-03T02:08:36;21.03;41.74
66962;HTU21D;53897;51.126;5.868;2023-04-03T02:11:02;21.01;41.72
66962;HTU21D;53897;51.126;5.868;2023-04-03T02:13:28;21.00;41.71
66962;HTU21D;53897;51.126;5.868;2023-04-03T02:15:53;21.00;41.73
66962;HTU21D;53897;51.126;5.868;2023-04-03T02:18:19;20.99;41.74
66962;HTU21D;53897;51.126;5.868;2023-04-03T02:20:46;20.96;41.70
66962;HTU21D;53897;51.126;5.868;2023-04-03T02:23:12;20.96;41.74
66962;HTU21D;53897;51.126;5.868;2023-04-03T02:25:38;20.94;41.66
66962;HTU21D;53897;51.126;5.868;2023-04-03T02:28:04;20.93;41.63
66962;HTU21D;53897;51.126;5.868;2023-04-03T02:30:30;20.90;41.68
66962;HTU21D;53897;51.126;5.868;2023-04-03T02:32:56;20.90;41.71
66962;HTU21D;53897;51.126;5.868;2023-04-03T02:35:21;20.89;41.74
66962;HTU21D;53897;51.126;5.868;2023-04-03T02:37:48;20.87;41.71
66962;HTU21D;53897;51.126;5.868;2023-04-03T02:40:14;20.86;41.71
66962;HTU21D;53897;51.126;5.868;2023-04-03T02:42:40;20.84;41.74
66962;HTU21D;53897;51.126;5.868;2023-04-03T02:45:06;20.84;41.71
66962;HTU21D;53897;51.126;5.868;2023-04-03T02:47:32;20.80;41.73
66962;HTU21D;53897;51.126;5.868;2023-04-03T02:49:58;20.79;41.71
66962;HTU21D;53897;51.126;5.868;2023-04-03T02:52:23;20.79;41.73
66962;HTU21D;53897;51.126;5.868;2023-04-03T02:54:51;20.76;41.68
66962;HTU21D;53897;51.126;5.868;2023-04-03T02:57:17;20.76;41.64
66962;HTU21D;53897;51.126;5.868;2023-04-03T02:59:43;20.75;41.64
66962;HTU21D;53897;51.126;5.868;2023-04-03T03:02:11;20.73;41.68
66962;HTU21D;53897;51.126;5.868;2023-04-03T03:04:37;20.72;41.69
66962;HTU21D;53897;51.126;5.868;2023-04-03T03:07:03;20.72;41.68
66962;HTU21D;53897;51.126;5.868;2023-04-03T03:09:29;20.70;41.69
66962;HTU21D;53897;51.126;5.868;2023-04-03T03:11:56;20.69;41.68
66962;HTU21D;53897;51.126;5.868;2023-04-03T03:14:22;20.69;41.70
66962;HTU21D;53897;51.126;5.868;2023-04-03T03:16:48;20.66;41.65
66962;HTU21D;53897;51.126;5.868;2023-04-03T03:19:14;20.65;41.62
66962;HTU21D;53897;51.126;5.868;2023-04-03T03:21:40;20.63;41.65
66962;HTU21D;53897;51.126;5.868;2023-04-03T03:24:06;20.63;41.62
66962;HTU21D;53897;51.126;5.868;2023-04-03T03:26:32;20.60;41.63
66962;HTU21D;53897;51.126;5.868;2023-04-03T03:28:58;20.59;41.63
66962;HTU21D;53897;51.126;5.868;2023-04-03T03:31:23;20.60;41.63
66962;HTU21D;53897;51.126;5.868;2023-04-03T03:33:49;20.57;41.67
66962;HTU21D;53897;51.126;5.868;2023-04-03T03:36:15;20.56;41.68
66962;HTU21D;53897;51.126;5.868;2023-04-03T03:38:41;20.55;41.69
66962;HTU21D;53897;51.126;5.868;2023-04-03T03:41:08;20.54;41.62
66962;HTU21D;53897;51.126;5.868;2023-04-03T03:43:34;20.51;41.68
66962;HTU21D;53897;51.126;5.868;2023-04-03T03:46:01;20.53;41.65
66962;HTU21D;53897;51.126;5.868;2023-04-03T03:48:28;20.50;41.66
66962;HTU21D;53897;51.126;5.868;2023-04-03T03:50:53;20.49;41.60
66962;HTU21D;53897;51.126;5.868;2023-04-03T03:53:23;20.48;41.62
66962;HTU21D;53897;51.126;5.868;2023-04-03T03:55:52;20.47;41.58
66962;HTU21D;53897;51.126;5.868;2023-04-03T03:58:20;20.45;41.61
66962;HTU21D;53897;51.126;5.868;2023-04-03T04:00:46;20.45;41.61
66962;HTU21D;53897;51.126;5.868;2023-04-03T04:03:12;20.44;41.60
66962;HTU21D;53897;51.126;5.868;2023-04-03T04:05:39;20.42;41.58
66962;HTU21D;53897;51.126;5.868;2023-04-03T04:08:04;20.41;41.59
66962;HTU21D;53897;51.126;5.868;2023-04-03T04:10:30;20.41;41.49
66962;HTU21D;53897;51.126;5.868;2023-04-03T04:12:57;20.39;41.30
66962;HTU21D;53897;51.126;5.868;2023-04-03T04:15:25;20.40;41.30
66962;HTU21D;53897;51.126;5.868;2023-04-03T04:17:53;20.37;41.22
66962;HTU21D;53897;51.126;5.868;2023-04-03T04:20:19;20.37;41.38
66962;HTU21D;53897;51.126;5.868;2023-04-03T04:22:46;20.36;41.35
66962;HTU21D;53897;51.126;5.868;2023-04-03T04:25:12;20.36;41.21
66962;HTU21D;53897;51.126;5.868;2023-04-03T04:27:39;20.35;41.23
66962;HTU21D;53897;51.126;5.868;2023-04-03T04:30:05;20.33;41.30
66962;HTU21D;53897;51.126;5.868;2023-04-03T04:32:32;20.33;41.31
66962;HTU21D;53897;51.126;5.868;2023-04-03T04:34:58;20.32;41.28
66962;HTU21D;53897;51.126;5.868;2023-04-03T04:37:24;20.30;41.29
66962;HTU21D;53897;51.126;5.868;2023-04-03T04:39:51;20.30;41.23
66962;HTU21D;53897;51.126;5.868;2023-04-03T04:42:17;20.27;41.46
66962;HTU21D;53897;51.126;5.868;2023-04-03T04:44:44;20.24;41.62
66962;HTU21D;53897;51.126;5.868;2023-04-03T04:47:12;20.19;41.74
66962;HTU21D;53897;51.126;5.868;2023-04-03T04:49:38;20.16;41.84
66962;HTU21D;53897;51.126;5.868;2023-04-03T04:52:05;20.14;41.94
66962;HTU21D;53897;51.126;5.868;2023-04-03T04:54:31;20.12;42.00
66962;HTU21D;53897;51.126;5.868;2023-04-03T04:56:57;20.12;42.04
66962;HTU21D;53897;51.126;5.868;2023-04-03T04:59:24;20.13;42.06
66962;HTU21D;53897;51.126;5.868;2023-04-03T05:01:52;20.16;42.07
66962;HTU21D;53897;51.126;5.868;2023-04-03T05:04:18;20.19;42.03
66962;HTU21D;53897;51.126;5.868;2023-04-03T05:06:47;20.22;42.03
66962;HTU21D;53897;51.126;5.868;2023-04-03T05:09:17;20.27;42.00
66962;HTU21D;53897;51.126;5.868;2023-04-03T05:11:46;20.29;41.98
66962;HTU21D;53897;51.126;5.868;2023-04-03T05:14:14;20.31;42.00
66962;HTU21D;53897;51.126;5.868;2023-04-03T05:16:40;20.36;42.01
66962;HTU21D;53897;51.126;5.868;2023-04-03T05:19:06;20.42;42.04
66962;HTU21D;53897;51.126;5.868;2023-04-03T05:21:32;20.47;42.01
66962;HTU21D;53897;51.126;5.868;2023-04-03T05:24:01;20.51;42.07
66962;HTU21D;53897;51.126;5.868;2023-04-03T05:26:31;20.59;41.99
66962;HTU21D;53897;51.126;5.868;2023-04-03T05:28:58;20.65;41.92
66962;HTU21D;53897;51.126;5.868;2023-04-03T05:31:24;20.73;41.89
66962;HTU21D;53897;51.126;5.868;2023-04-03T05:33:50;20.83;41.85
66962;HTU21D;53897;51.126;5.868;2023-04-03T05:36:18;20.89;41.77
66962;HTU21D;53897;51.126;5.868;2023-04-03T05:38:48;20.98;41.69
66962;HTU21D;53897;51.126;5.868;2023-04-03T05:41:15;21.08;41.68
66962;HTU21D;53897;51.126;5.868;2023-04-03T05:43:43;21.13;41.65
66962;HTU21D;53897;51.126;5.868;2023-04-03T05:46:11;21.19;41.64
66962;HTU21D;53897;51.126;5.868;2023-04-03T05:48:38;21.23;41.65
66962;HTU21D;53897;51.126;5.868;2023-04-03T05:51:06;21.30;41.76
66962;HTU21D;53897;51.126;5.868;2023-04-03T05:53:35;21.35;41.78
66962;HTU21D;53897;51.126;5.868;2023-04-03T05:56:04;21.40;41.80
66962;HTU21D;53897;51.126;5.868;2023-04-03T05:58:33;21.48;41.78
66962;HTU21D;53897;51.126;5.868;2023-04-03T06:00:59;21.52;41.74
66962;HTU21D;53897;51.126;5.868;2023-04-03T06:03:25;21.58;41.70
66962;HTU21D;53897;51.126;5.868;2023-04-03T06:05:51;21.62;41.60
66962;HTU21D;53897;51.126;5.868;2023-04-03T06:08:17;21.68;41.59
66962;HTU21D;53897;51.126;5.868;2023-04-03T06:10:43;21.73;41.54
66962;HTU21D;53897;51.126;5.868;2023-04-03T06:13:08;21.78;41.52
66962;HTU21D;53897;51.126;5.868;2023-04-03T06:15:34;21.80;41.51
66962;HTU21D;53897;51.126;5.868;2023-04-03T06:18:00;21.84;41.50
66962;HTU21D;53897;51.126;5.868;2023-04-03T06:20:25;21.88;41.46
66962;HTU21D;53897;51.126;5.868;2023-04-03T06:22:52;21.89;41.44
66962;HTU21D;53897;51.126;5.868;2023-04-03T06:25:18;21.94;41.49
66962;HTU21D;53897;51.126;5.868;2023-04-03T06:27:44;21.95;41.40
66962;HTU21D;53897;51.126;5.868;2023-04-03T06:30:11;21.97;41.29
66962;HTU21D;53897;51.126;5.868;2023-04-03T06:32:37;21.97;41.27
66962;HTU21D;53897;51.126;5.868;2023-04-03T06:35:04;21.96;41.15
66962;HTU21D;53897;51.126;5.868;2023-04-03T06:37:30;21.97;41.26
66962;HTU21D;53897;51.126;5.868;2023-04-03T06:39:56;21.97;41.15
66962;HTU21D;53897;51.126;5.868;2023-04-03T06:42:23;21.99;41.13
66962;HTU21D;53897;51.126;5.868;2023-04-03T06:45:00;22.01;41.08
66962;HTU21D;53897;51.126;5.868;2023-04-03T06:47:26;22.03;41.17
66962;HTU21D;53897;51.126;5.868;2023-04-03T06:49:52;22.07;41.22
66962;HTU21D;53897;51.126;5.868;2023-04-03T06:52:17;22.09;41.20
66962;HTU21D;53897;51.126;5.868;2023-04-03T06:54:43;22.13;41.15
66962;HTU21D;53897;51.126;5.868;2023-04-03T06:57:09;22.17;41.15
66962;HTU21D;53897;51.126;5.868;2023-04-03T06:59:35;22.19;41.11
66962;HTU21D;53897;51.126;5.868;2023-04-03T07:02:02;22.25;41.09
66962;HTU21D;53897;51.126;5.868;2023-04-03T07:04:28;22.29;41.04
66962;HTU21D;53897;51.126;5.868;2023-04-03T07:06:53;22.34;40.95
66962;HTU21D;53897;51.126;5.868;2023-04-03T07:09:19;22.38;40.91
66962;HTU21D;53897;51.126;5.868;2023-04-03T07:11:45;22.42;40.88
66962;HTU21D;53897;51.126;5.868;2023-04-03T07:14:11;22.48;40.74
66962;HTU21D;53897;51.126;5.868;2023-04-03T07:16:36;22.53;40.72
66962;HTU21D;53897;51.126;5.868;2023-04-03T07:19:02;22.55;40.59
66962;HTU21D;53897;51.126;5.868;2023-04-03T07:21:28;22.61;40.53
66962;HTU21D;53897;51.126;5.868;2023-04-03T07:23:54;22.64;40.46
66962;HTU21D;53897;51.126;5.868;2023-04-03T07:26:21;22.67;40.46
66962;HTU21D;53897;51.126;5.868;2023-04-03T07:28:48;22.73;40.47
66962;HTU21D;53897;51.126;5.868;2023-04-03T07:31:16;22.79;40.47
66962;HTU21D;53897;51.126;5.868;2023-04-03T07:33:43;22.85;40.48
66962;HTU21D;53897;51.126;5.868;2023-04-03T07:36:14;22.90;40.49
66962;HTU21D;53897;51.126;5.868;2023-04-03T07:38:40;22.93;40.50
66962;HTU21D;53897;51.126;5.868;2023-04-03T07:41:06;22.96;40.46
66962;HTU21D;53897;51.126;5.868;2023-04-03T07:43:32;22.99;40.42
66962;HTU21D;53897;51.126;5.868;2023-04-03T07:45:58;23.05;40.40
66962;HTU21D;53897;51.126;5.868;2023-04-03T07:48:25;23.08;40.39
66962;HTU21D;53897;51.126;5.868;2023-04-03T07:50:52;23.10;40.38
66962;HTU21D;53897;51.126;5.868;2023-04-03T07:53:18;23.14;40.32
66962;HTU21D;53897;51.126;5.868;2023-04-03T07:55:47;23.18;40.30
66962;HTU21D;53897;51.126;5.868;2023-04-03T07:58:16;23.22;40.17
66962;HTU21D;53897;51.126;5.868;2023-04-03T08:00:43;23.24;39.78
66962;HTU21D;53897;51.126;5.868;2023-04-03T08:03:10;23.26;39.66
66962;HTU21D;53897;51.126;5.868;2023-04-03T08:05:37;23.28;39.56
66962;HTU21D;53897;51.126;5.868;2023-04-03T08:08:04;23.30;39.46
66962;HTU21D;53897;51.126;5.868;2023-04-03T08:10:30;23.32;39.40
66962;HTU21D;53897;51.126;5.868;2023-04-03T08:12:56;23.34;39.41
66962;HTU21D;53897;51.126;5.868;2023-04-03T08:15:22;23.37;39.43
66962;HTU21D;53897;51.126;5.868;2023-04-03T08:17:48;23.37;39.42
66962;HTU21D;53897;51.126;5.868;2023-04-03T08:20:14;23.38;39.43
66962;HTU21D;53897;51.126;5.868;2023-04-03T08:22:40;23.41;39.46
66962;HTU21D;53897;51.126;5.868;2023-04-03T08:25:06;23.43;39.43
66962;HTU21D;53897;51.126;5.868;2023-04-03T08:27:32;23.44;39.43
66962;HTU21D;53897;51.126;5.868;2023-04-03T08:29:58;23.45;39.47
66962;HTU21D;53897;51.126;5.868;2023-04-03T08:32:24;23.47;39.46
66962;HTU21D;53897;51.126;5.868;2023-04-03T08:34:50;23.47;39.48
66962;HTU21D;53897;51.126;5.868;2023-04-03T08:37:15;23.50;39.49
66962;HTU21D;53897;51.126;5.868;2023-04-03T08:39:42;23.51;39.52
66962;HTU21D;53897;51.126;5.868;2023-04-03T08:42:28;23.54;39.52
66962;HTU21D;53897;51.126;5.868;2023-04-03T08:48:05;23.57;39.51
66962;HTU21D;53897;51.126;5.868;2023-04-03T08:50:40;23.59;39.52
66962;HTU21D;53897;51.126;5.868;2023-04-03T08:53:15;23.60;39.55
66962;HTU21D;53897;51.126;5.868;2023-04-03T08:55:46;23.62;39.54
66962;HTU21D;53897;51.126;5.868;2023-04-03T08:58:16;23.65;39.52
66962;HTU21D;53897;51.126;5.868;2023-04-03T09:01:00;23.65;39.48
66962;HTU21D;53897;51.126;5.868;2023-04-03T09:03:30;23.66;39.48
66962;HTU21D;53897;51.126;5.868;2023-04-03T09:06:16;23.68;39.40
66962;HTU21D;53897;51.126;5.868;2023-04-03T09:17:46;23.74;39.53
66962;HTU21D;53897;51.126;5.868;2023-04-03T09:23:46;23.79;39.61
66962;HTU21D;53897;51.126;5.868;2023-04-03T09:26:21;23.81;39.55
66962;HTU21D;53897;51.126;5.868;2023-04-03T09:28:55;23.82;39.64
66962;HTU21D;53897;51.126;5.868;2023-04-03T09:31:32;23.83;39.63
66962;HTU21D;53897;51.126;5.868;2023-04-03T09:34:09;23.85;39.64
66962;HTU21D;53897;51.126;5.868;2023-04-03T09:36:49;23.85;39.63
66962;HTU21D;53897;51.126;5.868;2023-04-03T09:39:21;23.88;39.62
66962;HTU21D;53897;51.126;5.868;2023-04-03T09:42:32;23.90;39.59
66962;HTU21D;53897;51.126;5.868;2023-04-03T09:44:59;23.91;39.56
66962;HTU21D;53897;51.126;5.868;2023-04-03T09:47:35;23.91;39.56
66962;HTU21D;53897;51.126;5.868;2023-04-03T09:52:44;23.96;39.51
66962;HTU21D;53897;51.126;5.868;2023-04-03T09:55:21;23.97;39.49
66962;HTU21D;53897;51.126;5.868;2023-04-03T09:57:54;23.99;39.47
66962;HTU21D;53897;51.126;5.868;2023-04-03T10:00:27;24.00;39.46
66962;HTU21D;53897;51.126;5.868;2023-04-03T10:02:59;24.02;39.45
66962;HTU21D;53897;51.126;5.868;2023-04-03T10:05:37;24.02;39.44
66962;HTU21D;53897;51.126;5.868;2023-04-03T10:10:48;24.04;39.39
66962;HTU21D;53897;51.126;5.868;2023-04-03T10:13:30;24.06;39.37
66962;HTU21D;53897;51.126;5.868;2023-04-03T10:16:06;24.06;39.36
66962;HTU21D;53897;51.126;5.868;2023-04-03T10:18:40;24.09;39.36
66962;HTU21D;53897;51.126;5.868;2023-04-03T10:21:26;24.09;39.36
66962;HTU21D;53897;51.126;5.868;2023-04-03T10:24:18;24.11;39.30
66962;HTU21D;53897;51.126;5.868;2023-04-03T10:27:08;24.12;39.12
66962;HTU21D;53897;51.126;5.868;2023-04-03T10:29:46;24.12;38.88
66962;HTU21D;53897;51.126;5.868;2023-04-03T10:32:27;24.12;38.96
66962;HTU21D;53897;51.126;5.868;2023-04-03T10:35:15;24.11;38.94
66962;HTU21D;53897;51.126;5.868;2023-04-03T10:38:09;24.14;39.04
66962;HTU21D;53897;51.126;5.868;2023-04-03T10:41:16;24.15;39.14
66962;HTU21D;53897;51.126;5.868;2023-04-03T10:46:38;24.17;40.17
66962;HTU21D;53897;51.126;5.868;2023-04-03T10:49:19;24.19;39.99
66962;HTU21D;53897;51.126;5.868;2023-04-03T10:51:48;24.21;39.85
66962;HTU21D;53897;51.126;5.868;2023-04-03T10:57:03;24.20;39.78
66962;HTU21D;53897;51.126;5.868;2023-04-03T11:02:58;24.16;39.81
66962;HTU21D;53897;51.126;5.868;2023-04-03T11:05:35;24.16;39.77
66962;HTU21D;53897;51.126;5.868;2023-04-03T11:08:09;24.16;39.84
66962;HTU21D;53897;51.126;5.868;2023-04-03T11:10:43;24.16;39.87
66962;HTU21D;53897;51.126;5.868;2023-04-03T11:13:50;24.14;39.75
66962;HTU21D;53897;51.126;5.868;2023-04-03T11:16:27;24.15;39.81
66962;HTU21D;53897;51.126;5.868;2023-04-03T11:19:02;24.17;39.80
66962;HTU21D;53897;51.126;5.868;2023-04-03T11:21:34;24.19;39.79
66962;HTU21D;53897;51.126;5.868;2023-04-03T11:24:05;24.21;39.78
66962;HTU21D;53897;51.126;5.868;2023-04-03T11:26:41;24.24;39.75
66962;HTU21D;53897;51.126;5.868;2023-04-03T11:29:18;24.25;39.69
66962;HTU21D;53897;51.126;5.868;2023-04-03T11:34:53;24.27;39.65
66962;HTU21D;53897;51.126;5.868;2023-04-03T11:40:00;24.30;39.58
66962;HTU21D;53897;51.126;5.868;2023-04-03T11:42:42;24.32;39.54
66962;HTU21D;53897;51.126;5.868;2023-04-03T11:47:57;24.33;39.59
66962;HTU21D;53897;51.126;5.868;2023-04-03T11:55:52;24.35;39.42
66962;HTU21D;53897;51.126;5.868;2023-04-03T11:58:30;24.36;39.49
66962;HTU21D;53897;51.126;5.868;2023-04-03T12:01:00;24.36;39.37
66962;HTU21D;53897;51.126;5.868;2023-04-03T12:03:33;24.34;39.09
66962;HTU21D;53897;51.126;5.868;2023-04-03T12:16:06;24.38;39.40
66962;HTU21D;53897;51.126;5.868;2023-04-03T12:21:08;24.38;39.04
66962;HTU21D;53897;51.126;5.868;2023-04-03T12:23:36;24.40;39.04
66962;HTU21D;53897;51.126;5.868;2023-04-03T12:26:26;24.41;38.99
66962;HTU21D;53897;51.126;5.868;2023-04-03T12:28:53;24.39;39.09
66962;HTU21D;53897;51.126;5.868;2023-04-03T12:31:25;24.40;39.01
66962;HTU21D;53897;51.126;5.868;2023-04-03T12:34:09;24.40;38.98
66962;HTU21D;53897;51.126;5.868;2023-04-03T12:39:45;24.38;39.03
66962;HTU21D;53897;51.126;5.868;2023-04-03T12:42:31;24.33;39.23
66962;HTU21D;53897;51.126;5.868;2023-04-03T12:45:02;24.30;39.34
66962;HTU21D;53897;51.126;5.868;2023-04-03T12:47:35;24.28;39.49
66962;HTU21D;53897;51.126;5.868;2023-04-03T12:53:11;24.29;39.64
66962;HTU21D;53897;51.126;5.868;2023-04-03T12:55:38;24.31;39.68
66962;HTU21D;53897;51.126;5.868;2023-04-03T12:58:27;24.32;39.69
66962;HTU21D;53897;51.126;5.868;2023-04-03T13:01:10;24.33;39.68
66962;HTU21D;53897;51.126;5.868;2023-04-03T13:03:44;24.34;39.68
66962;HTU21D;53897;51.126;5.868;2023-04-03T13:06:33;24.38;39.70
66962;HTU21D;53897;51.126;5.868;2023-04-03T13:09:01;24.36;39.68
66962;HTU21D;53897;51.126;5.868;2023-04-03T13:11:39;24.38;39.68
66962;HTU21D;53897;51.126;5.868;2023-04-03T13:14:20;24.39;39.69
66962;HTU21D;53897;51.126;5.868;2023-04-03T13:17:13;24.39;39.69
66962;HTU21D;53897;51.126;5.868;2023-04-03T13:19:41;24.40;39.68
66962;HTU21D;53897;51.126;5.868;2023-04-03T13:22:30;24.41;39.61
66962;HTU21D;53897;51.126;5.868;2023-04-03T13:25:01;24.40;39.62
66962;HTU21D;53897;51.126;5.868;2023-04-03T13:27:31;24.41;39.68
66962;HTU21D;53897;51.126;5.868;2023-04-03T13:30:01;24.41;39.70
66962;HTU21D;53897;51.126;5.868;2023-04-03T13:32:29;24.41;39.70
66962;HTU21D;53897;51.126;5.868;2023-04-03T13:34:59;24.42;39.69
66962;HTU21D;53897;51.126;5.868;2023-04-03T13:37:32;24.42;39.62
66962;HTU21D;53897;51.126;5.868;2023-04-03T13:42:36;24.43;39.73
66962;HTU21D;53897;51.126;5.868;2023-04-03T13:45:16;24.42;39.84
66962;HTU21D;53897;51.126;5.868;2023-04-03T13:47:45;24.44;39.91
66962;HTU21D;53897;51.126;5.868;2023-04-03T13:53:11;24.43;39.91
66962;HTU21D;53897;51.126;5.868;2023-04-03T13:58:23;24.42;40.04
66962;HTU21D;53897;51.126;5.868;2023-04-03T14:01:07;24.43;40.08
66962;HTU21D;53897;51.126;5.868;2023-04-03T14:03:43;24.43;40.07
66962;HTU21D;53897;51.126;5.868;2023-04-03T14:06:14;24.43;40.06
66962;HTU21D;53897;51.126;5.868;2023-04-03T14:08:40;24.43;40.04
66962;HTU21D;53897;51.126;5.868;2023-04-03T14:11:14;24.43;40.04
66962;HTU21D;53897;51.126;5.868;2023-04-03T14:13:41;24.42;40.01
66962;HTU21D;53897;51.126;5.868;2023-04-03T14:16:12;24.41;40.01
66962;HTU21D;53897;51.126;5.868;2023-04-03T14:18:39;24.41;39.98
66962;HTU21D;53897;51.126;5.868;2023-04-03T14:21:04;24.42;39.96
66962;HTU21D;53897;51.126;5.868;2023-04-03T14:23:30;24.41;39.91
66962;HTU21D;53897;51.126;5.868;2023-04-03T14:25:58;24.43;39.81
66962;HTU21D;53897;51.126;5.868;2023-04-03T14:28:25;24.40;39.81
66962;HTU21D;53897;51.126;5.868;2023-04-03T14:30:51;24.40;39.79
66962;HTU21D;53897;51.126;5.868;2023-04-03T14:33:20;24.39;39.78
66962;HTU21D;53897;51.126;5.868;2023-04-03T14:35:47;24.38;39.64
66962;HTU21D;53897;51.126;5.868;2023-04-03T14:38:30;24.38;39.68
66962;HTU21D;53897;51.126;5.868;2023-04-03T14:40:58;24.35;39.65
66962;HTU21D;53897;51.126;5.868;2023-04-03T14:43:24;24.36;39.62
66962;HTU21D;53897;51.126;5.868;2023-04-03T14:45:50;24.35;39.62
66962;HTU21D;53897;51.126;5.868;2023-04-03T14:48:28;24.34;39.60
66962;HTU21D;53897;51.126;5.868;2023-04-03T14:50:55;24.33;39.58
66962;HTU21D;53897;51.126;5.868;2023-04-03T14:53:21;24.33;39.56
66962;HTU21D;53897;51.126;5.868;2023-04-03T14:55:50;24.32;39.53
66962;HTU21D;53897;51.126;5.868;2023-04-03T14:58:18;24.31;39.52
66962;HTU21D;53897;51.126;5.868;2023-04-03T15:00:45;24.30;39.55
66962;HTU21D;53897;51.126;5.868;2023-04-03T15:03:16;24.30;39.58
66962;HTU21D;53897;51.126;5.868;2023-04-03T15:05:45;24.29;39.50
66962;HTU21D;53897;51.126;5.868;2023-04-03T15:08:19;24.28;39.39
66962;HTU21D;53897;51.126;5.868;2023-04-03T15:10:46;24.26;39.41
66962;HTU21D;53897;51.126;5.868;2023-04-03T15:13:12;24.26;39.43
66962;HTU21D;53897;51.126;5.868;2023-04-03T15:15:39;24.25;39.33
66962;HTU21D;53897;51.126;5.868;2023-04-03T15:18:05;24.24;39.51
66962;HTU21D;53897;51.126;5.868;2023-04-03T15:20:31;24.25;39.73
66962;HTU21D;53897;51.126;5.868;2023-04-03T15:23:00;24.21;40.17
66962;HTU21D;53897;51.126;5.868;2023-04-03T15:25:30;24.21;40.90
66962;HTU21D;53897;51.126;5.868;2023-04-03T15:27:57;24.21;42.10
66962;HTU21D;53897;51.126;5.868;2023-04-03T15:30:23;24.21;42.45
66962;HTU21D;53897;51.126;5.868;2023-04-03T15:32:50;24.21;42.64
66962;HTU21D;53897;51.126;5.868;2023-04-03T15:35:16;24.21;42.48
66962;HTU21D;53897;51.126;5.868;2023-04-03T15:37:41;24.20;42.60
66962;HTU21D;53897;51.126;5.868;2023-04-03T15:40:08;24.21;42.91
66962;HTU21D;53897;51.126;5.868;2023-04-03T15:42:34;24.20;42.59
66962;HTU21D;53897;51.126;5.868;2023-04-03T15:45:00;24.21;42.58
66962;HTU21D;53897;51.126;5.868;2023-04-03T15:47:26;24.20;42.64
66962;HTU21D;53897;51.126;5.868;2023-04-03T15:49:54;24.21;42.67
66962;HTU21D;53897;51.126;5.868;2023-04-03T15:52:20;24.21;42.62
66962;HTU21D;53897;51.126;5.868;2023-04-03T15:54:46;24.23;42.74
66962;HTU21D;53897;51.126;5.868;2023-04-03T15:57:11;24.20;42.67
66962;HTU21D;53897;51.126;5.868;2023-04-03T15:59:37;24.21;42.58
66962;HTU21D;53897;51.126;5.868;2023-04-03T16:02:07;24.19;42.90
66962;HTU21D;53897;51.126;5.868;2023-04-03T16:04:34;24.20;42.84
66962;HTU21D;53897;51.126;5.868;2023-04-03T16:07:03;24.19;42.95
66962;HTU21D;53897;51.126;5.868;2023-04-03T16:09:30;24.19;43.16
66962;HTU21D;53897;51.126;5.868;2023-04-03T16:11:56;24.19;43.26
66962;HTU21D;53897;51.126;5.868;2023-04-03T16:14:22;24.20;43.22
66962;HTU21D;53897;51.126;5.868;2023-04-03T16:16:48;24.21;42.91
66962;HTU21D;53897;51.126;5.868;2023-04-03T16:19:14;24.20;42.80
66962;HTU21D;53897;51.126;5.868;2023-04-03T16:21:40;24.17;42.82
66962;HTU21D;53897;51.126;5.868;2023-04-03T16:24:06;24.14;42.87
66962;HTU21D;53897;51.126;5.868;2023-04-03T16:26:32;24.17;42.68
66962;HTU21D;53897;51.126;5.868;2023-04-03T16:28:58;24.15;42.52
66962;HTU21D;53897;51.126;5.868;2023-04-03T16:31:25;24.16;42.61
66962;HTU21D;53897;51.126;5.868;2023-04-03T16:33:51;24.17;42.49
66962;HTU21D;53897;51.126;5.868;2023-04-03T16:36:17;24.18;42.46
66962;HTU21D;53897;51.126;5.868;2023-04-03T16:38:43;24.16;42.24
66962;HTU21D;53897;51.126;5.868;2023-04-03T16:41:09;24.15;42.16
66962;HTU21D;53897;51.126;5.868;2023-04-03T16:43:35;24.15;42.15